createdAt,value
2019-03-19T00:01:09.078Z,4.55
2019-03-19T00:03:37.148Z,4.75
2019-03-19T00:06:05.058Z,4.40
2019-03-19T00:08:33.008Z,4.70
2019-03-19T00:11:01.003Z,5.05
2019-03-19T00:13:28.919Z,5.05
2019-03-19T00:15:56.816Z,5.17
2019-03-19T00:18:24.753Z,5.00
2019-03-19T00:20:52.727Z,4.70
2019-03-19T00:23:20.696Z,5.33
2019-03-19T00:25:48.717Z,4.40
2019-03-19T00:28:16.569Z,4.90
2019-03-19T00:30:44.481Z,4.80
2019-03-19T00:33:12.448Z,5.00
2019-03-19T00:35:40.490Z,5.22
2019-03-19T00:38:08.433Z,4.75
2019-03-19T00:40:36.374Z,4.55
2019-03-19T00:43:04.330Z,4.65
2019-03-19T00:45:32.254Z,5.78
2019-03-19T00:48:00.176Z,5.28
2019-03-19T00:50:28.106Z,5.40
2019-03-19T00:52:56.120Z,5.85
2019-03-19T00:55:24.063Z,5.65
2019-03-19T00:57:51.967Z,5.25
2019-03-19T01:00:20.869Z,5.12
2019-03-19T01:02:49.165Z,5.75
2019-03-19T01:05:17.209Z,5.25
2019-03-19T01:07:45.092Z,6.08
2019-03-19T01:10:13.117Z,6.10
2019-03-19T01:12:41.242Z,6.10
2019-03-19T01:15:09.831Z,5.80
2019-03-19T01:17:37.770Z,5.92
2019-03-19T01:20:07.857Z,5.42
2019-03-19T01:22:35.874Z,5.85
2019-03-19T01:25:05.066Z,6.97
2019-03-19T01:27:33.090Z,6.10
2019-03-19T01:30:01.139Z,6.25
2019-03-19T01:32:29.064Z,6.90
2019-03-19T01:34:57.058Z,6.62
2019-03-19T01:37:25.092Z,6.30
2019-03-19T01:39:53.027Z,6.40
2019-03-19T01:42:21.067Z,6.60
2019-03-19T01:44:49.084Z,6.35
2019-03-19T01:47:17.049Z,6.78
2019-03-19T01:49:45.104Z,5.60
2019-03-19T01:52:13.375Z,7.20
2019-03-19T01:54:42.381Z,5.85
2019-03-19T01:57:10.300Z,5.72
2019-03-19T01:59:38.396Z,6.20
2019-03-19T02:02:07.000Z,6.15
2019-03-19T02:04:35.065Z,5.90
2019-03-19T02:07:04.226Z,6.47
2019-03-19T02:09:32.225Z,5.90
2019-03-19T02:12:00.166Z,7.30
2019-03-19T02:14:28.109Z,5.47
2019-03-19T02:16:56.190Z,6.10
2019-03-19T02:19:24.175Z,6.60
2019-03-19T02:21:52.155Z,6.37
2019-03-19T02:24:20.009Z,6.67
2019-03-19T02:26:47.929Z,5.62
2019-03-19T02:29:15.850Z,6.47
2019-03-19T02:31:43.836Z,7.20
2019-03-19T02:34:11.774Z,6.58
2019-03-19T02:36:39.759Z,7.50
2019-03-19T02:39:07.879Z,7.25
2019-03-19T02:41:35.962Z,6.53
2019-03-19T02:44:04.922Z,5.53
2019-03-19T02:46:32.903Z,6.35
2019-03-19T02:49:00.922Z,6.60
2019-03-19T02:51:29.153Z,6.47
2019-03-19T02:53:57.158Z,6.60
2019-03-19T02:56:32.674Z,7.22
2019-03-19T02:58:55.191Z,6.95
2019-03-19T03:01:23.167Z,6.80
2019-03-19T03:03:51.166Z,7.12
2019-03-19T03:06:19.123Z,6.55
2019-03-19T03:08:47.253Z,6.60
2019-03-19T03:11:15.404Z,7.83
2019-03-19T03:13:43.293Z,7.62
2019-03-19T03:16:11.588Z,6.80
2019-03-19T03:18:39.662Z,6.08
2019-03-19T03:21:07.603Z,6.53
2019-03-19T03:23:35.599Z,6.47
2019-03-19T03:26:03.754Z,6.40
2019-03-19T03:28:32.857Z,6.87
2019-03-19T03:31:00.793Z,7.80
2019-03-19T03:33:28.982Z,7.28
2019-03-19T03:35:56.912Z,8.40
2019-03-19T03:38:24.964Z,7.75
2019-03-19T03:40:52.918Z,8.63
2019-03-19T03:43:20.843Z,8.20
2019-03-19T03:45:48.882Z,8.88
2019-03-19T03:48:16.885Z,9.03
2019-03-19T03:50:44.857Z,7.53
2019-03-19T03:53:12.861Z,7.40
2019-03-19T03:55:40.925Z,7.40
2019-03-19T03:58:08.964Z,7.35
2019-03-19T04:00:36.918Z,8.43
2019-03-19T04:03:04.901Z,8.30
2019-03-19T04:05:32.874Z,8.10
2019-03-19T04:08:00.757Z,7.42
2019-03-19T04:10:28.661Z,8.63
2019-03-19T04:12:56.575Z,8.70
2019-03-19T04:15:24.552Z,8.20
2019-03-19T04:17:52.582Z,8.70
2019-03-19T04:20:20.477Z,9.33
2019-03-19T04:22:48.237Z,9.18
2019-03-19T04:25:16.229Z,9.80
2019-03-19T04:27:44.216Z,10.75
2019-03-19T04:30:12.288Z,12.13
2019-03-19T04:32:41.307Z,11.93
2019-03-19T04:35:09.451Z,11.93
2019-03-19T04:37:37.296Z,10.48
2019-03-19T04:40:06.189Z,10.00
2019-03-19T04:42:34.110Z,9.95
2019-03-19T04:45:02.128Z,11.28
2019-03-19T04:47:30.007Z,11.45
2019-03-19T04:49:58.046Z,11.15
2019-03-19T04:52:25.977Z,11.08
2019-03-19T04:54:53.998Z,12.13
2019-03-19T04:57:27.116Z,11.03
2019-03-19T04:59:52.754Z,11.60
2019-03-19T05:02:20.761Z,11.30
2019-03-19T05:04:48.695Z,12.30
2019-03-19T05:07:16.573Z,12.63
2019-03-19T05:09:44.550Z,11.25
2019-03-19T05:12:12.513Z,15.68
2019-03-19T05:14:40.432Z,17.27
2019-03-19T05:17:08.441Z,17.17
2019-03-19T05:19:37.477Z,17.55
2019-03-19T05:22:05.347Z,14.30
2019-03-19T05:24:33.299Z,14.53
2019-03-19T05:27:01.532Z,14.75
2019-03-19T05:29:29.649Z,15.70
2019-03-19T05:31:57.560Z,15.65
2019-03-19T05:34:25.557Z,16.07
2019-03-19T05:36:53.615Z,15.55
2019-03-19T05:39:21.722Z,14.30
2019-03-19T05:41:49.840Z,14.63
2019-03-19T05:44:17.860Z,15.45
2019-03-19T05:46:45.810Z,16.10
2019-03-19T05:49:13.919Z,17.27
2019-03-19T05:51:41.890Z,17.25
2019-03-19T05:54:09.923Z,17.75
2019-03-19T05:56:38.124Z,17.65
2019-03-19T05:59:06.130Z,16.55
2019-03-19T06:01:34.247Z,15.90
2019-03-19T06:04:02.323Z,15.50
2019-03-19T06:06:30.340Z,15.28
2019-03-19T06:08:58.274Z,16.05
2019-03-19T06:11:26.325Z,16.15
2019-03-19T06:13:54.399Z,14.70
2019-03-19T06:16:22.454Z,14.45
2019-03-19T06:18:50.451Z,15.68
2019-03-19T06:21:18.482Z,13.65
2019-03-19T06:23:46.563Z,16.10
2019-03-19T06:26:15.044Z,14.55
2019-03-19T06:28:43.123Z,14.00
2019-03-19T06:31:11.150Z,13.55
2019-03-19T06:33:39.165Z,13.45
2019-03-19T06:36:07.367Z,13.85
2019-03-19T06:38:35.402Z,14.50
2019-03-19T06:41:03.509Z,13.90
2019-03-19T06:43:31.565Z,14.05
2019-03-19T06:45:59.668Z,13.00
2019-03-19T06:48:27.890Z,13.43
2019-03-19T06:50:56.391Z,14.35
2019-03-19T06:53:24.588Z,14.05
2019-03-19T06:55:52.690Z,13.60
2019-03-19T06:58:20.594Z,14.18
2019-03-19T07:00:48.598Z,14.28
2019-03-19T07:03:16.603Z,17.98
2019-03-19T07:05:44.726Z,19.98
2019-03-19T07:08:12.607Z,21.05
2019-03-19T07:10:40.594Z,24.95
2019-03-19T07:13:08.547Z,28.02
2019-03-19T07:15:37.402Z,25.32
2019-03-19T07:18:05.226Z,22.27
2019-03-19T07:20:33.367Z,21.40
2019-03-19T07:23:01.339Z,20.68
2019-03-19T07:25:29.443Z,20.23
2019-03-19T07:27:57.425Z,18.42
2019-03-19T07:30:26.686Z,18.35
2019-03-19T07:32:54.750Z,18.45
2019-03-19T07:35:22.844Z,17.90
2019-03-19T07:37:51.131Z,16.00
2019-03-19T07:40:19.112Z,16.12
2019-03-19T07:42:47.159Z,16.67
2019-03-19T07:45:15.708Z,15.83
2019-03-19T07:47:43.862Z,15.65
2019-03-19T07:50:13.188Z,14.80
2019-03-19T07:52:41.629Z,14.90
2019-03-19T07:55:09.725Z,15.00
2019-03-19T07:57:37.745Z,15.25
2019-03-19T08:00:06.859Z,13.55
2019-03-19T08:02:37.167Z,15.38
2019-03-19T08:05:06.471Z,13.65
2019-03-19T08:07:34.949Z,14.47
2019-03-19T08:10:03.502Z,14.45
2019-03-19T08:12:33.531Z,12.18
2019-03-19T08:15:01.421Z,15.08
2019-03-19T08:17:29.381Z,15.00
2019-03-19T08:19:57.450Z,15.50
2019-03-19T08:22:25.908Z,15.78
2019-03-19T08:24:53.922Z,15.05
2019-03-19T08:27:21.993Z,15.63
2019-03-19T08:29:50.822Z,17.17
2019-03-19T08:32:18.879Z,14.98
2019-03-19T08:34:46.913Z,15.25
2019-03-19T08:37:15.644Z,14.30
2019-03-19T08:39:43.611Z,14.18
2019-03-19T08:42:11.784Z,12.95
2019-03-19T08:44:39.842Z,13.22
2019-03-19T08:47:07.927Z,12.93
2019-03-19T08:49:35.875Z,13.20
2019-03-19T08:52:03.887Z,13.50
2019-03-19T08:54:32.531Z,13.43
2019-03-19T08:57:00.688Z,12.10
2019-03-19T08:59:28.682Z,13.35
2019-03-19T09:01:56.586Z,12.58
2019-03-19T09:04:24.785Z,13.72
2019-03-19T09:06:52.758Z,13.40
2019-03-19T09:09:20.701Z,12.75
2019-03-19T09:11:48.674Z,12.33
2019-03-19T09:14:16.687Z,11.70
2019-03-19T09:16:44.634Z,11.90
2019-03-19T09:19:12.674Z,10.95
2019-03-19T09:21:40.745Z,10.63
2019-03-19T09:24:08.709Z,15.43
2019-03-19T09:26:36.653Z,10.53
2019-03-19T09:29:04.567Z,10.50
2019-03-19T09:31:32.525Z,9.20
2019-03-19T09:34:00.506Z,9.53
2019-03-19T09:36:28.556Z,8.00
2019-03-19T09:38:56.481Z,6.75
2019-03-19T09:41:24.417Z,6.75
2019-03-19T09:43:53.534Z,7.08
2019-03-19T09:46:21.647Z,7.28
2019-03-19T09:48:49.913Z,5.40
2019-03-19T09:51:17.878Z,4.70
2019-03-19T09:53:45.797Z,5.05
2019-03-19T09:56:13.705Z,4.78
2019-03-19T09:58:41.852Z,4.40
2019-03-19T10:01:09.765Z,4.28
2019-03-19T10:03:37.754Z,5.17
2019-03-19T10:06:13.905Z,4.40
2019-03-19T10:08:35.597Z,3.42
2019-03-19T10:11:03.527Z,5.00
2019-03-19T10:13:31.457Z,5.25
2019-03-19T10:15:59.405Z,5.55
2019-03-19T10:18:27.388Z,7.20
2019-03-19T10:20:55.293Z,4.58
2019-03-19T10:23:23.330Z,5.25
2019-03-19T10:25:51.440Z,4.28
2019-03-19T10:28:19.688Z,4.17
2019-03-19T10:30:47.738Z,3.05
2019-03-19T10:33:16.603Z,2.75
2019-03-19T10:35:44.854Z,3.00
2019-03-19T10:38:13.082Z,2.50
2019-03-19T10:40:41.082Z,1.90
2019-03-19T10:43:09.240Z,2.15
2019-03-19T10:45:38.013Z,3.10
2019-03-19T10:48:06.140Z,1.80
2019-03-19T10:50:34.299Z,2.15
2019-03-19T10:53:02.365Z,2.35
2019-03-19T10:55:30.435Z,2.90
2019-03-19T10:57:58.425Z,2.20
2019-03-19T11:00:26.615Z,3.37
2019-03-19T11:02:54.697Z,3.12
2019-03-19T11:05:24.089Z,2.67
2019-03-19T11:07:52.089Z,2.17
2019-03-19T11:10:20.209Z,2.50
2019-03-19T11:12:48.405Z,2.90
2019-03-19T11:15:17.491Z,2.80
2019-03-19T11:17:45.916Z,2.35
2019-03-19T11:20:15.678Z,3.62
2019-03-19T11:22:43.995Z,2.33
2019-03-19T11:25:13.356Z,2.40
2019-03-19T11:27:43.919Z,1.85
2019-03-19T11:30:17.707Z,3.00
2019-03-19T11:32:45.792Z,2.75
2019-03-19T11:35:14.080Z,2.17
2019-03-19T11:37:42.242Z,2.35
2019-03-19T11:40:11.169Z,2.75
2019-03-19T11:42:40.103Z,2.42
2019-03-19T11:45:09.060Z,2.20
2019-03-19T11:47:37.062Z,2.85
2019-03-19T11:50:12.138Z,2.83
2019-03-19T11:52:40.303Z,2.92
2019-03-19T11:55:08.538Z,2.50
2019-03-19T11:57:37.128Z,3.08
2019-03-19T12:00:11.438Z,3.27
2019-03-19T12:02:39.565Z,2.95
2019-03-19T12:05:09.252Z,2.77
2019-03-19T12:07:37.246Z,2.30
2019-03-19T12:10:05.889Z,2.50
2019-03-19T12:12:33.985Z,2.72
2019-03-19T12:15:01.954Z,2.80
2019-03-19T12:17:30.188Z,2.80
2019-03-19T12:19:58.101Z,2.63
2019-03-19T12:22:26.069Z,2.42
2019-03-19T12:24:54.066Z,2.30
2019-03-19T12:27:22.634Z,1.80
2019-03-19T12:29:50.680Z,2.03
2019-03-19T12:32:18.624Z,2.40
2019-03-19T12:34:46.637Z,1.73
2019-03-19T12:37:14.880Z,2.55
2019-03-19T12:39:42.896Z,2.65
2019-03-19T12:42:12.302Z,2.40
2019-03-19T12:44:40.415Z,2.20
2019-03-19T12:47:09.263Z,2.15
2019-03-19T12:49:37.207Z,1.90
2019-03-19T12:52:05.262Z,2.67
2019-03-19T12:54:33.389Z,2.65
2019-03-19T12:57:01.339Z,2.20
2019-03-19T12:59:29.819Z,1.70
2019-03-19T13:01:57.853Z,1.95
2019-03-19T13:04:25.873Z,2.30
2019-03-19T13:06:53.916Z,1.93
2019-03-19T13:09:22.000Z,2.00
2019-03-19T13:11:49.961Z,1.80
2019-03-19T13:14:17.903Z,2.65
2019-03-19T13:16:47.546Z,2.65
2019-03-19T13:19:15.903Z,2.50
2019-03-19T13:21:44.100Z,3.10
2019-03-19T13:24:12.066Z,1.90
2019-03-19T13:26:40.243Z,2.42
2019-03-19T13:29:10.435Z,2.05
2019-03-19T13:31:39.761Z,1.77
2019-03-19T13:34:08.369Z,1.60
2019-03-19T13:36:38.233Z,2.12
2019-03-19T13:39:07.653Z,2.37
2019-03-19T13:41:36.176Z,2.47
2019-03-19T13:44:04.503Z,2.22
2019-03-19T13:46:32.637Z,2.52
2019-03-19T13:49:00.617Z,2.20
2019-03-19T13:51:28.649Z,2.50
2019-03-19T13:53:56.690Z,1.87
2019-03-19T13:56:24.911Z,2.25
2019-03-19T13:58:53.144Z,1.60
2019-03-19T14:01:21.242Z,2.52
2019-03-19T14:03:49.255Z,1.92
2019-03-19T14:06:17.294Z,1.80
2019-03-19T14:08:45.662Z,1.90
2019-03-19T14:11:13.812Z,2.05
2019-03-19T14:13:41.788Z,2.10
2019-03-19T14:16:11.740Z,2.05
2019-03-19T14:18:39.824Z,2.08
2019-03-19T14:21:08.767Z,3.30
2019-03-19T14:23:36.927Z,2.25
2019-03-19T14:26:05.118Z,2.10
2019-03-19T14:28:33.121Z,2.08
2019-03-19T14:31:08.583Z,1.60
2019-03-19T14:33:31.419Z,1.92
2019-03-19T14:35:59.659Z,3.00
2019-03-19T14:38:27.710Z,2.52
2019-03-19T14:40:55.743Z,2.33
2019-03-19T14:43:23.851Z,1.90
2019-03-19T14:45:52.389Z,2.20
2019-03-19T14:48:20.854Z,2.05
2019-03-19T14:50:49.073Z,1.90
2019-03-19T14:53:17.281Z,1.57
2019-03-19T14:55:45.465Z,2.47
2019-03-19T14:58:13.539Z,2.27
2019-03-19T15:00:41.577Z,1.63
2019-03-19T15:03:09.904Z,1.97
2019-03-19T15:05:38.079Z,1.60
2019-03-19T15:08:06.364Z,2.10
2019-03-19T15:10:34.569Z,1.80
2019-03-19T15:13:02.790Z,2.30
2019-03-19T15:15:30.986Z,2.20
2019-03-19T15:17:59.140Z,2.43
2019-03-19T15:20:27.510Z,1.73
2019-03-19T15:22:55.732Z,2.03
2019-03-19T15:25:23.859Z,2.37
2019-03-19T15:27:51.945Z,2.00
2019-03-19T15:30:20.147Z,2.30
2019-03-19T15:32:48.307Z,2.50
2019-03-19T15:35:16.495Z,2.03
2019-03-19T15:37:44.997Z,1.80
2019-03-19T15:40:13.385Z,2.03
2019-03-19T15:42:41.861Z,2.40
2019-03-19T15:45:10.764Z,2.10
2019-03-19T15:47:38.956Z,2.13
2019-03-19T15:50:10.716Z,2.00
2019-03-19T15:52:38.860Z,1.90
2019-03-19T15:55:07.215Z,2.80
2019-03-19T15:57:35.429Z,1.90
2019-03-19T16:00:06.309Z,1.73
2019-03-19T16:02:34.950Z,2.20
2019-03-19T16:05:05.025Z,2.13
2019-03-19T16:07:33.166Z,2.30
2019-03-19T16:10:02.078Z,2.57
2019-03-19T16:12:30.322Z,3.30
2019-03-19T16:14:58.345Z,2.30
2019-03-19T16:17:26.574Z,2.10
2019-03-19T16:19:54.582Z,2.42
2019-03-19T16:22:22.635Z,2.47
2019-03-19T16:24:50.577Z,2.10
2019-03-19T16:27:19.320Z,1.95
2019-03-19T16:29:48.866Z,2.10
2019-03-19T16:32:17.530Z,2.17
2019-03-19T16:34:45.690Z,2.50
2019-03-19T16:37:13.818Z,2.35
2019-03-19T16:39:42.170Z,2.40
2019-03-19T16:42:10.269Z,2.02
2019-03-19T16:44:38.355Z,3.30
2019-03-19T16:47:06.676Z,4.00
2019-03-19T16:49:34.735Z,3.95
2019-03-19T16:52:02.857Z,2.40
2019-03-19T16:54:31.005Z,2.40
2019-03-19T16:56:59.720Z,3.67
2019-03-19T16:59:28.338Z,2.30
2019-03-19T17:02:01.734Z,2.73
2019-03-19T17:04:26.775Z,1.95
2019-03-19T17:06:55.010Z,2.70
2019-03-19T17:09:23.070Z,2.27
2019-03-19T17:11:51.112Z,3.40
2019-03-19T17:14:19.257Z,2.75
2019-03-19T17:16:47.363Z,2.90
2019-03-19T17:19:15.515Z,2.30
2019-03-19T17:21:43.626Z,2.52
2019-03-19T17:24:11.824Z,3.50
2019-03-19T17:26:39.995Z,3.27
2019-03-19T17:29:08.204Z,2.00
2019-03-19T17:31:36.335Z,3.10
2019-03-19T17:34:04.418Z,3.50
2019-03-19T17:36:32.486Z,3.52
2019-03-19T17:39:00.752Z,2.70
2019-03-19T17:41:30.812Z,3.52
2019-03-19T17:43:58.953Z,3.12
2019-03-19T17:46:27.007Z,3.50
2019-03-19T17:48:55.233Z,3.55
2019-03-19T17:51:23.422Z,3.90
2019-03-19T17:53:51.620Z,3.60
2019-03-19T17:56:21.835Z,3.52
2019-03-19T17:58:50.003Z,4.33
2019-03-19T18:01:18.267Z,5.12
2019-03-19T18:03:46.320Z,4.70
2019-03-19T18:06:14.432Z,5.17
2019-03-19T18:08:42.790Z,5.78
2019-03-19T18:11:11.088Z,4.22
2019-03-19T18:13:39.244Z,5.37
2019-03-19T18:16:07.464Z,5.47
2019-03-19T18:18:35.725Z,5.58
2019-03-19T18:21:04.366Z,5.95
2019-03-19T18:23:32.443Z,6.45
2019-03-19T18:26:00.550Z,6.25
2019-03-19T18:28:28.727Z,6.30
2019-03-19T18:30:56.950Z,6.22
2019-03-19T18:33:25.144Z,7.47
2019-03-19T18:35:56.279Z,9.08
2019-03-19T18:38:23.948Z,6.67
2019-03-19T18:40:52.206Z,6.30
2019-03-19T18:43:21.284Z,8.25
2019-03-19T18:45:49.546Z,7.42
2019-03-19T18:48:17.697Z,8.63
2019-03-19T18:50:45.791Z,8.50
2019-03-19T18:53:14.002Z,8.30
2019-03-19T18:55:42.133Z,8.70
2019-03-19T18:58:10.295Z,9.15
2019-03-19T19:00:38.363Z,8.53
2019-03-19T19:03:06.730Z,8.58
2019-03-19T19:05:34.935Z,7.58
2019-03-19T19:08:02.975Z,8.35
2019-03-19T19:10:31.106Z,7.87
2019-03-19T19:12:59.309Z,8.63
2019-03-19T19:15:27.384Z,8.45
2019-03-19T19:17:57.569Z,8.25
2019-03-19T19:20:26.600Z,7.75
2019-03-19T19:22:54.791Z,7.90
2019-03-19T19:25:22.924Z,7.60
2019-03-19T19:27:51.028Z,6.55
2019-03-19T19:30:19.140Z,7.05
2019-03-19T19:32:47.605Z,6.80
2019-03-19T19:35:15.753Z,6.65
2019-03-19T19:37:43.907Z,6.83
2019-03-19T19:40:13.152Z,8.33
2019-03-19T19:42:41.630Z,7.67
2019-03-19T19:45:11.586Z,6.45
2019-03-19T19:47:40.481Z,7.20
2019-03-19T19:50:10.760Z,7.10
2019-03-19T19:52:38.927Z,6.92
2019-03-19T19:55:08.773Z,6.62
2019-03-19T19:57:37.082Z,5.85
2019-03-19T20:00:07.670Z,5.70
2019-03-19T20:02:35.836Z,5.95
2019-03-19T20:05:04.652Z,6.60
2019-03-19T20:07:32.669Z,6.22
2019-03-19T20:10:01.070Z,6.70
2019-03-19T20:12:29.658Z,6.83
2019-03-19T20:14:58.040Z,6.67
2019-03-19T20:17:27.133Z,5.78
2019-03-19T20:19:55.349Z,5.70
2019-03-19T20:22:23.814Z,6.03
2019-03-19T20:24:54.113Z,6.95
2019-03-19T20:27:22.432Z,6.40
2019-03-19T20:29:50.591Z,5.60
2019-03-19T20:32:18.835Z,5.60
2019-03-19T20:34:47.041Z,7.28
2019-03-19T20:37:15.408Z,7.80
2019-03-19T20:39:43.647Z,7.00
2019-03-19T20:42:12.900Z,6.42
2019-03-19T20:44:40.964Z,7.60
2019-03-19T20:47:09.258Z,7.25
2019-03-19T20:49:47.165Z,7.20
2019-03-19T20:52:07.794Z,7.78
2019-03-19T20:54:36.132Z,7.85
2019-03-19T20:57:04.501Z,7.70
2019-03-19T20:59:32.714Z,9.13
2019-03-19T21:02:00.938Z,7.37
2019-03-19T21:04:31.643Z,8.95
2019-03-19T21:06:59.018Z,7.78
2019-03-19T21:09:27.126Z,8.95
2019-03-19T21:11:56.155Z,7.58
2019-03-19T21:14:24.203Z,6.35
2019-03-19T21:16:52.464Z,6.60
2019-03-19T21:19:20.693Z,7.45
2019-03-19T21:21:48.697Z,7.65
2019-03-19T21:24:17.041Z,7.47
2019-03-19T21:26:45.375Z,8.18
2019-03-19T21:29:13.640Z,8.20
2019-03-19T21:31:41.759Z,7.75
2019-03-19T21:34:09.788Z,7.53
2019-03-19T21:36:37.897Z,8.85
2019-03-19T21:39:07.160Z,9.40
2019-03-19T21:41:35.178Z,8.13
2019-03-19T21:44:03.236Z,7.50
2019-03-19T21:46:31.450Z,8.30
2019-03-19T21:48:59.577Z,7.95
2019-03-19T21:51:28.600Z,7.85
2019-03-19T21:53:56.631Z,9.15
2019-03-19T21:56:24.871Z,8.50
2019-03-19T21:58:53.055Z,8.38
2019-03-19T22:01:21.003Z,8.65
2019-03-19T22:03:49.053Z,6.90
2019-03-19T22:06:17.307Z,6.30
2019-03-19T22:08:45.356Z,7.90
2019-03-19T22:11:13.579Z,7.15
2019-03-19T22:13:41.621Z,8.10
2019-03-19T22:16:09.800Z,8.18
2019-03-19T22:18:37.871Z,7.65
2019-03-19T22:21:05.906Z,8.05
2019-03-19T22:23:36.351Z,7.70
2019-03-19T22:26:04.332Z,7.33
2019-03-19T22:28:32.371Z,7.67
2019-03-19T22:31:00.359Z,8.83
2019-03-19T22:33:28.560Z,8.78
2019-03-19T22:35:56.564Z,7.78
2019-03-19T22:38:24.736Z,8.10
2019-03-19T22:40:52.765Z,7.83
2019-03-19T22:43:21.727Z,6.90
2019-03-19T22:45:49.760Z,6.95
2019-03-19T22:48:20.057Z,8.35
2019-03-19T22:50:48.945Z,6.00
2019-03-19T22:53:16.994Z,5.90
2019-03-19T22:55:45.071Z,7.10
2019-03-19T22:58:15.815Z,7.05
2019-03-19T23:00:49.845Z,6.92
2019-03-19T23:03:18.346Z,6.15
2019-03-19T23:05:46.303Z,7.45
2019-03-19T23:08:14.451Z,7.42
2019-03-19T23:10:42.475Z,8.28
2019-03-19T23:13:11.981Z,6.17
2019-03-19T23:15:40.099Z,5.55
2019-03-19T23:18:08.105Z,6.87
2019-03-19T23:20:36.244Z,10.23
2019-03-19T23:23:04.491Z,10.03
2019-03-19T23:25:32.428Z,7.72
2019-03-19T23:28:00.554Z,7.00
2019-03-19T23:30:28.662Z,7.37
2019-03-19T23:32:56.936Z,6.45
2019-03-19T23:35:25.056Z,7.83
2019-03-19T23:37:53.077Z,7.40
2019-03-19T23:40:22.156Z,7.05
2019-03-19T23:42:50.336Z,7.87
2019-03-19T23:45:18.510Z,7.25
2019-03-19T23:47:47.913Z,8.13
2019-03-19T23:50:15.872Z,7.28
2019-03-19T23:52:45.077Z,7.20
2019-03-19T23:55:14.278Z,7.05
2019-03-19T23:57:43.447Z,7.22
